createdAt,value
2022-09-26T00:01:28.496Z,100.00
2022-09-26T00:04:01.352Z,100.00
2022-09-26T00:06:30.135Z,100.00
2022-09-26T00:08:58.990Z,100.00
2022-09-26T00:11:31.490Z,100.00
2022-09-26T00:14:01.889Z,100.00
2022-09-26T00:16:29.002Z,100.00
2022-09-26T00:18:57.769Z,100.00
2022-09-26T00:21:30.961Z,100.00
2022-09-26T00:24:00.270Z,100.00
2022-09-26T00:26:29.729Z,100.00
2022-09-26T00:29:04.456Z,100.00
2022-09-26T00:31:33.071Z,100.00
2022-09-26T00:33:59.899Z,100.00
2022-09-26T00:36:37.382Z,100.00
2022-09-26T00:39:04.629Z,100.00
2022-09-26T00:41:33.074Z,100.00
2022-09-26T00:43:59.725Z,100.00
2022-09-26T00:46:38.136Z,100.00
2022-09-26T00:49:20.105Z,100.00
2022-09-26T00:51:57.314Z,100.00
2022-09-26T00:54:24.846Z,100.00
2022-09-26T00:56:56.114Z,100.00
2022-09-26T00:59:31.131Z,100.00
2022-09-26T01:01:59.340Z,100.00
2022-09-26T01:04:30.497Z,100.00
2022-09-26T01:06:59.697Z,100.00
2022-09-26T01:09:30.573Z,100.00
2022-09-26T01:12:00.186Z,100.00
2022-09-26T01:14:27.798Z,100.00
2022-09-26T01:16:58.294Z,100.00
2022-09-26T01:19:36.556Z,100.00
2022-09-26T01:22:19.913Z,100.00
2022-09-26T01:25:18.853Z,100.00
2022-09-26T01:28:04.490Z,100.00
2022-09-26T01:31:07.633Z,100.00
2022-09-26T01:33:48.147Z,100.00
2022-09-26T01:36:44.468Z,100.00
2022-09-26T01:39:20.209Z,100.00
2022-09-26T01:42:23.302Z,100.00
2022-09-26T01:45:07.503Z,100.00
2022-09-26T01:48:01.891Z,100.00
2022-09-26T01:51:01.581Z,100.00
2022-09-26T01:53:49.099Z,100.00
2022-09-26T01:56:23.787Z,100.00
2022-09-26T01:59:02.727Z,100.00
2022-09-26T02:01:37.546Z,100.00
2022-09-26T02:04:11.277Z,100.00
2022-09-26T02:06:41.480Z,100.00
2022-09-26T02:09:13.937Z,100.00
2022-09-26T02:11:45.458Z,100.00
2022-09-26T02:14:20.429Z,100.00
2022-09-26T02:16:53.858Z,100.00
2022-09-26T02:19:28.506Z,100.00
2022-09-26T02:21:58.641Z,100.00
2022-09-26T02:24:25.439Z,100.00
2022-09-26T02:26:54.081Z,100.00
2022-09-26T02:29:21.825Z,100.00
2022-09-26T02:32:05.758Z,100.00
2022-09-26T02:34:33.279Z,100.00
2022-09-26T02:37:13.297Z,100.00
2022-09-26T02:39:42.398Z,100.00
2022-09-26T02:42:24.262Z,100.00
2022-09-26T02:45:29.754Z,100.00
2022-09-26T02:48:25.260Z,100.00
2022-09-26T02:51:00.757Z,100.00
2022-09-26T02:53:39.968Z,100.00
2022-09-26T02:56:27.742Z,100.00
2022-09-26T02:59:03.771Z,100.00
2022-09-26T03:01:43.875Z,100.00
2022-09-26T03:04:41.897Z,100.00
2022-09-26T03:07:19.550Z,100.00
2022-09-26T03:09:48.951Z,100.00
2022-09-26T03:12:16.682Z,100.00
2022-09-26T03:14:46.663Z,100.00
2022-09-26T03:17:18.498Z,100.00
2022-09-26T03:19:59.641Z,100.00
2022-09-26T03:22:26.413Z,100.00
2022-09-26T03:24:53.990Z,100.00
2022-09-26T03:27:20.990Z,100.00
2022-09-26T03:29:49.465Z,100.00
2022-09-26T03:32:20.526Z,100.00
2022-09-26T03:34:48.584Z,100.00
2022-09-26T03:37:17.002Z,100.00
2022-09-26T03:39:45.005Z,100.00
2022-09-26T03:42:22.827Z,100.00
2022-09-26T03:44:49.497Z,100.00
2022-09-26T03:47:41.930Z,100.00
2022-09-26T03:50:09.339Z,100.00
2022-09-26T03:52:36.480Z,100.00
2022-09-26T03:55:04.322Z,100.00
2022-09-26T03:57:30.865Z,100.00
2022-09-26T04:00:07.969Z,100.00
2022-09-26T04:02:44.061Z,100.00
2022-09-26T04:05:22.978Z,100.00
2022-09-26T04:07:49.596Z,100.00
2022-09-26T04:10:16.360Z,100.00
2022-09-26T04:12:44.566Z,100.00
2022-09-26T04:15:11.617Z,100.00
2022-09-26T04:17:39.035Z,100.00
2022-09-26T04:20:05.974Z,100.00
2022-09-26T04:22:34.146Z,100.00
2022-09-26T04:25:01.023Z,100.00
2022-09-26T04:27:28.736Z,100.00
2022-09-26T04:29:57.300Z,100.00
2022-09-26T04:32:34.656Z,100.00
2022-09-26T04:35:19.639Z,100.00
2022-09-26T04:37:47.212Z,100.00
2022-09-26T04:40:14.336Z,100.00
2022-09-26T04:42:52.261Z,100.00
2022-09-26T04:45:18.836Z,100.00
2022-09-26T04:47:45.774Z,100.00
2022-09-26T04:50:43.497Z,100.00
2022-09-26T04:53:12.226Z,100.00
2022-09-26T04:55:50.979Z,100.00
2022-09-26T04:58:21.718Z,100.00
2022-09-26T05:00:49.708Z,100.00
2022-09-26T05:03:26.133Z,100.00
2022-09-26T05:05:53.185Z,100.00
2022-09-26T05:08:20.069Z,100.00
2022-09-26T05:10:53.204Z,100.00
2022-09-26T05:13:19.793Z,100.00
2022-09-26T05:15:47.766Z,100.00
2022-09-26T05:18:15.085Z,100.00
2022-09-26T05:20:46.322Z,100.00
2022-09-26T05:23:12.935Z,100.00
2022-09-26T05:25:59.680Z,100.00
2022-09-26T05:28:27.311Z,100.00
2022-09-26T05:30:54.386Z,100.00
2022-09-26T05:33:22.330Z,100.00
2022-09-26T05:35:54.791Z,100.00
2022-09-26T05:38:22.009Z,100.00
2022-09-26T05:40:56.455Z,100.00
2022-09-26T05:43:26.845Z,100.00
2022-09-26T05:45:59.784Z,100.00
2022-09-26T05:48:32.186Z,100.00
2022-09-26T05:51:13.897Z,100.00
2022-09-26T05:53:45.278Z,100.00
2022-09-26T05:56:18.734Z,100.00
2022-09-26T05:59:00.458Z,100.00
2022-09-26T06:01:46.760Z,100.00
2022-09-26T06:04:25.777Z,100.00
2022-09-26T06:07:12.454Z,99.55
2022-09-26T06:09:39.095Z,99.40
2022-09-26T06:12:19.536Z,99.24
2022-09-26T06:14:46.744Z,99.18
2022-09-26T06:17:13.531Z,98.04
2022-09-26T06:19:40.282Z,97.96
2022-09-26T06:22:07.174Z,97.91
2022-09-26T06:24:33.842Z,97.76
2022-09-26T06:27:00.885Z,97.97
2022-09-26T06:29:29.853Z,97.46
2022-09-26T06:31:57.887Z,97.65
2022-09-26T06:34:26.565Z,96.92
2022-09-26T06:37:04.908Z,96.79
2022-09-26T06:39:35.873Z,96.90
2022-09-26T06:42:07.233Z,96.38
2022-09-26T06:44:52.551Z,95.63
2022-09-26T06:47:25.249Z,95.64
2022-09-26T06:50:30.494Z,95.15
2022-09-26T06:53:08.692Z,95.38
2022-09-26T06:55:38.711Z,95.08
2022-09-26T06:58:05.306Z,94.44
2022-09-26T07:00:46.749Z,94.35
2022-09-26T07:03:32.610Z,94.39
2022-09-26T07:06:14.798Z,94.61
2022-09-26T07:09:01.511Z,94.06
2022-09-26T07:12:09.916Z,94.29
2022-09-26T07:14:28.880Z,93.80
2022-09-26T07:17:01.005Z,93.68
2022-09-26T07:19:51.728Z,93.34
2022-09-26T07:22:53.925Z,93.57
2022-09-26T07:25:20.753Z,93.39
2022-09-26T07:27:52.469Z,92.59
2022-09-26T07:30:23.448Z,92.66
2022-09-26T07:33:05.376Z,92.48
2022-09-26T07:35:45.255Z,92.47
2022-09-26T07:38:13.062Z,91.90
2022-09-26T07:40:40.452Z,91.67
2022-09-26T07:43:19.812Z,91.46
2022-09-26T07:46:09.667Z,91.21
2022-09-26T07:48:55.840Z,90.12
2022-09-26T07:51:56.906Z,89.54
2022-09-26T07:54:29.857Z,89.30
2022-09-26T07:57:24.462Z,88.32
2022-09-26T08:00:14.852Z,86.12
2022-09-26T08:02:47.320Z,86.14
2022-09-26T08:05:20.036Z,87.04
2022-09-26T08:07:49.076Z,86.42
2022-09-26T08:10:35.825Z,84.34
2022-09-26T08:13:20.930Z,84.53
2022-09-26T08:16:11.646Z,83.97
2022-09-26T08:18:44.131Z,84.44
2022-09-26T08:21:11.265Z,83.39
2022-09-26T08:23:38.288Z,83.63
2022-09-26T08:26:25.452Z,83.51
2022-09-26T08:28:59.824Z,83.36
2022-09-26T08:31:26.718Z,83.28
2022-09-26T08:33:53.929Z,83.91
2022-09-26T08:36:21.460Z,83.45
2022-09-26T08:39:11.317Z,82.38
2022-09-26T08:42:29.843Z,83.54
2022-09-26T08:46:10.144Z,82.97
2022-09-26T08:49:24.767Z,81.83
2022-09-26T08:51:54.581Z,81.80
2022-09-26T08:54:31.583Z,80.64
2022-09-26T08:57:15.729Z,80.70
2022-09-26T08:59:45.649Z,81.01
2022-09-26T09:02:26.417Z,80.63
2022-09-26T09:04:58.505Z,80.91
2022-09-26T09:07:28.457Z,80.77
2022-09-26T09:10:08.142Z,80.46
2022-09-26T09:12:58.436Z,79.66
2022-09-26T09:16:07.268Z,80.26
2022-09-26T09:19:41.578Z,79.53
2022-09-26T09:22:44.879Z,79.86
2022-09-26T09:25:39.793Z,78.59
2022-09-26T09:28:29.190Z,78.32
2022-09-26T09:31:02.474Z,78.54
2022-09-26T09:33:58.708Z,77.73
2022-09-26T09:36:51.175Z,77.03
2022-09-26T09:39:26.663Z,78.25
2022-09-26T09:42:13.148Z,77.76
2022-09-26T09:44:55.869Z,77.65
2022-09-26T09:47:31.455Z,75.19
2022-09-26T09:50:01.730Z,75.63
2022-09-26T09:52:46.123Z,75.24
2022-09-26T09:55:50.162Z,76.46
2022-09-26T09:58:30.368Z,75.26
2022-09-26T10:01:19.138Z,75.19
2022-09-26T10:04:03.930Z,74.91
2022-09-26T10:06:45.565Z,75.45
2022-09-26T10:09:38.504Z,74.06
2022-09-26T10:12:32.919Z,73.96
2022-09-26T10:15:26.234Z,73.73
2022-09-26T10:18:24.545Z,73.02
2022-09-26T10:21:12.824Z,72.92
2022-09-26T10:23:44.605Z,73.37
2022-09-26T10:26:35.877Z,73.11
2022-09-26T10:29:07.544Z,72.40
2022-09-26T10:31:42.337Z,72.71
2022-09-26T10:34:29.105Z,72.63
2022-09-26T10:36:56.316Z,73.05
2022-09-26T10:39:46.312Z,73.25
2022-09-26T10:42:20.111Z,72.98
2022-09-26T10:44:50.490Z,73.79
2022-09-26T10:47:24.734Z,72.86
2022-09-26T10:50:27.777Z,73.86
2022-09-26T10:53:15.064Z,72.57
2022-09-26T10:55:46.433Z,72.99
2022-09-26T10:58:22.513Z,73.26
2022-09-26T11:00:52.269Z,73.84
2022-09-26T11:03:32.384Z,74.48
2022-09-26T11:06:27.952Z,74.85
2022-09-26T11:09:03.552Z,74.75
2022-09-26T11:11:41.074Z,74.24
2022-09-26T11:14:09.163Z,73.75
2022-09-26T11:16:39.363Z,73.63
2022-09-26T11:19:26.796Z,74.13
2022-09-26T11:22:27.132Z,72.86
2022-09-26T11:25:06.685Z,73.65
2022-09-26T11:27:48.100Z,74.15
2022-09-26T11:30:22.750Z,73.78
2022-09-26T11:33:00.453Z,74.52
2022-09-26T11:36:05.485Z,74.95
2022-09-26T11:38:47.617Z,74.27
2022-09-26T11:41:38.316Z,74.66
2022-09-26T11:44:34.686Z,74.77
2022-09-26T11:47:51.686Z,74.59
2022-09-26T11:50:43.575Z,76.43
2022-09-26T11:53:45.829Z,77.15
2022-09-26T11:56:25.037Z,78.73
2022-09-26T11:59:13.691Z,81.22
2022-09-26T12:02:01.897Z,81.55
2022-09-26T12:04:51.770Z,80.23
2022-09-26T12:07:21.320Z,80.19
2022-09-26T12:10:09.577Z,80.75
2022-09-26T12:12:56.468Z,81.17
2022-09-26T12:15:26.060Z,80.88
2022-09-26T12:18:13.304Z,81.30
2022-09-26T12:21:15.371Z,81.02
2022-09-26T12:23:48.636Z,81.11
2022-09-26T12:26:39.704Z,81.06
2022-09-26T12:29:09.351Z,81.58
2022-09-26T12:31:50.941Z,82.38
2022-09-26T12:34:32.989Z,82.73
2022-09-26T12:37:26.013Z,83.31
2022-09-26T12:40:10.970Z,82.50
2022-09-26T12:43:02.262Z,83.46
2022-09-26T12:45:49.679Z,84.72
2022-09-26T12:48:38.452Z,82.32
2022-09-26T12:51:30.028Z,81.92
2022-09-26T12:54:13.033Z,81.74
2022-09-26T12:57:18.805Z,82.47
2022-09-26T13:00:23.148Z,83.86
2022-09-26T13:03:26.091Z,83.93
2022-09-26T13:06:11.031Z,85.24
2022-09-26T13:09:00.622Z,85.18
2022-09-26T13:11:41.813Z,86.03
2022-09-26T13:14:41.961Z,85.32
2022-09-26T13:17:20.177Z,87.09
2022-09-26T13:19:54.325Z,86.60
2022-09-26T13:22:31.610Z,86.25
2022-09-26T13:25:17.561Z,87.41
2022-09-26T13:27:48.303Z,86.77
2022-09-26T13:30:20.988Z,86.89
2022-09-26T13:32:57.249Z,86.94
2022-09-26T13:35:26.133Z,87.64
2022-09-26T13:38:09.965Z,87.27
2022-09-26T13:41:14.115Z,87.43
2022-09-26T13:44:03.553Z,87.97
2022-09-26T13:46:30.145Z,88.69
2022-09-26T13:49:07.958Z,88.44
2022-09-26T13:51:49.553Z,88.84
2022-09-26T13:55:04.609Z,89.94
2022-09-26T13:57:37.057Z,91.00
2022-09-26T14:00:29.951Z,92.03
2022-09-26T14:03:18.382Z,93.46
2022-09-26T14:05:46.307Z,93.42
2022-09-26T14:09:16.569Z,93.82
2022-09-26T14:11:49.110Z,93.67
2022-09-26T14:14:19.219Z,93.08
2022-09-26T14:16:51.636Z,93.41
2022-09-26T14:19:37.457Z,93.47
2022-09-26T14:22:25.621Z,93.55
2022-09-26T14:24:56.536Z,95.52
2022-09-26T14:27:37.459Z,95.56
2022-09-26T14:30:29.661Z,95.68
2022-09-26T14:33:16.081Z,96.37
2022-09-26T14:35:44.621Z,96.19
2022-09-26T14:38:21.152Z,96.60
2022-09-26T14:40:55.795Z,97.33
2022-09-26T14:43:24.822Z,97.34
2022-09-26T14:45:53.349Z,97.38
2022-09-26T14:48:36.945Z,97.24
2022-09-26T14:51:22.083Z,96.25
2022-09-26T14:53:48.613Z,97.02
2022-09-26T14:56:35.262Z,97.54
2022-09-26T14:59:25.000Z,97.02
2022-09-26T15:01:53.290Z,96.50
2022-09-26T15:04:29.978Z,96.78
2022-09-26T15:07:01.611Z,96.68
2022-09-26T15:09:59.004Z,96.00
2022-09-26T15:13:03.885Z,96.04
2022-09-26T15:15:37.644Z,96.52
2022-09-26T15:18:15.533Z,95.42
2022-09-26T15:20:47.913Z,94.78
2022-09-26T15:23:51.727Z,96.03
2022-09-26T15:26:25.262Z,95.55
2022-09-26T15:28:54.553Z,95.76
2022-09-26T15:31:39.859Z,94.30
2022-09-26T15:34:24.188Z,94.55
2022-09-26T15:36:59.565Z,93.47
2022-09-26T15:39:37.194Z,93.56
2022-09-26T15:42:37.487Z,92.47
2022-09-26T15:45:23.299Z,92.83
2022-09-26T15:47:49.940Z,91.81
2022-09-26T15:50:21.165Z,91.30
2022-09-26T15:52:47.729Z,91.14
2022-09-26T15:55:28.303Z,89.43
2022-09-26T15:58:00.892Z,89.29
2022-09-26T16:00:34.469Z,88.82
2022-09-26T16:04:02.193Z,89.08
2022-09-26T16:06:34.052Z,87.36
2022-09-26T16:09:40.093Z,86.49
2022-09-26T16:12:15.967Z,86.82
2022-09-26T16:15:00.226Z,85.71
2022-09-26T16:17:49.114Z,86.39
2022-09-26T16:20:15.997Z,86.17
2022-09-26T16:22:48.896Z,86.06
2022-09-26T16:25:15.327Z,86.62
2022-09-26T16:27:42.254Z,85.92
2022-09-26T16:30:23.661Z,85.28
2022-09-26T16:32:59.133Z,85.62
2022-09-26T16:35:29.566Z,86.09
2022-09-26T16:37:59.730Z,85.37
2022-09-26T16:40:28.053Z,85.82
2022-09-26T16:43:23.958Z,84.47
2022-09-26T16:45:56.247Z,84.63
2022-09-26T16:48:52.617Z,84.61
2022-09-26T16:51:35.276Z,84.86
2022-09-26T16:54:07.501Z,85.54
2022-09-26T16:56:38.030Z,85.79
2022-09-26T16:59:11.735Z,85.58
2022-09-26T17:01:56.184Z,86.13
2022-09-26T17:04:31.121Z,87.07
2022-09-26T17:07:07.462Z,86.78
2022-09-26T17:09:36.365Z,87.00
2022-09-26T17:12:06.190Z,87.16
2022-09-26T17:14:41.221Z,87.58
2022-09-26T17:17:16.341Z,87.65
2022-09-26T17:19:46.110Z,88.24
2022-09-26T17:22:17.684Z,88.83
2022-09-26T17:24:44.617Z,88.11
2022-09-26T17:27:16.379Z,87.52
2022-09-26T17:29:49.012Z,87.72
2022-09-26T17:32:24.992Z,87.24
2022-09-26T17:34:51.725Z,87.54
2022-09-26T17:37:20.110Z,87.61
2022-09-26T17:39:46.633Z,87.68
2022-09-26T17:42:13.539Z,87.53
2022-09-26T17:44:40.707Z,87.63
2022-09-26T17:47:07.528Z,87.73
2022-09-26T17:49:39.236Z,88.09
2022-09-26T17:52:23.146Z,88.51
2022-09-26T17:54:53.830Z,87.90
2022-09-26T17:57:25.465Z,87.51
2022-09-26T17:59:55.373Z,87.56
2022-09-26T18:02:29.999Z,88.01
2022-09-26T18:04:59.200Z,88.01
2022-09-26T18:07:31.266Z,87.80
2022-09-26T18:09:59.125Z,88.23
2022-09-26T18:12:26.433Z,88.16
2022-09-26T18:14:55.245Z,87.80
2022-09-26T18:17:21.917Z,87.86
2022-09-26T18:19:50.487Z,88.12
2022-09-26T18:22:21.606Z,88.73
2022-09-26T18:24:50.988Z,89.86
2022-09-26T18:27:17.858Z,89.96
2022-09-26T18:29:47.773Z,90.46
2022-09-26T18:32:25.873Z,91.48
2022-09-26T18:34:53.894Z,92.58
2022-09-26T18:37:21.781Z,92.99
2022-09-26T18:39:53.626Z,93.16
2022-09-26T18:42:24.486Z,94.00
2022-09-26T18:45:04.204Z,95.40
2022-09-26T18:47:44.515Z,95.54
2022-09-26T18:50:38.456Z,96.56
2022-09-26T18:53:20.074Z,97.13
2022-09-26T18:56:05.317Z,97.35
2022-09-26T18:58:34.115Z,97.59
2022-09-26T19:01:27.412Z,97.98
2022-09-26T19:03:57.042Z,99.33
2022-09-26T19:06:38.541Z,99.40
2022-09-26T19:09:13.386Z,99.66
2022-09-26T19:11:39.966Z,99.86
2022-09-26T19:14:13.347Z,99.84
2022-09-26T19:16:41.241Z,100.00
2022-09-26T19:19:07.776Z,100.00
2022-09-26T19:21:38.850Z,100.00
2022-09-26T19:24:12.216Z,100.00
2022-09-26T19:26:42.408Z,100.00
2022-09-26T19:29:14.311Z,100.00
2022-09-26T19:31:42.704Z,100.00
2022-09-26T19:34:17.890Z,100.00
2022-09-26T19:36:44.509Z,100.00
2022-09-26T19:39:15.660Z,100.00
2022-09-26T19:41:42.229Z,100.00
2022-09-26T19:44:09.284Z,100.00
2022-09-26T19:46:37.371Z,100.00
2022-09-26T19:49:05.773Z,100.00
2022-09-26T19:51:37.121Z,100.00
2022-09-26T19:54:06.685Z,100.00
2022-09-26T19:56:34.965Z,100.00
2022-09-26T19:59:01.790Z,100.00
2022-09-26T20:01:28.412Z,100.00
2022-09-26T20:03:55.094Z,100.00
2022-09-26T20:06:24.508Z,100.00
2022-09-26T20:08:56.397Z,100.00
2022-09-26T20:11:27.033Z,100.00
2022-09-26T20:14:12.646Z,100.00
2022-09-26T20:16:42.444Z,100.00
2022-09-26T20:19:18.460Z,100.00
2022-09-26T20:21:47.314Z,100.00
2022-09-26T20:24:18.460Z,100.00
2022-09-26T20:26:46.574Z,100.00
2022-09-26T20:29:15.510Z,100.00
2022-09-26T20:31:43.467Z,100.00
2022-09-26T20:34:16.975Z,100.00
2022-09-26T20:36:48.861Z,100.00
2022-09-26T20:39:26.065Z,100.00
2022-09-26T20:41:52.910Z,100.00
2022-09-26T20:44:27.239Z,100.00
2022-09-26T20:47:04.080Z,100.00
2022-09-26T20:49:41.184Z,100.00
2022-09-26T20:52:18.021Z,100.00
2022-09-26T20:54:45.758Z,100.00
2022-09-26T20:57:12.773Z,100.00
2022-09-26T20:59:41.521Z,100.00
2022-09-26T21:02:23.447Z,100.00
2022-09-26T21:04:51.358Z,100.00
2022-09-26T21:07:18.375Z,100.00
2022-09-26T21:09:45.273Z,100.00
2022-09-26T21:12:17.003Z,100.00
2022-09-26T21:14:44.228Z,100.00
2022-09-26T21:17:37.021Z,100.00
2022-09-26T21:20:04.307Z,100.00
2022-09-26T21:22:49.465Z,100.00
2022-09-26T21:25:21.034Z,100.00
2022-09-26T21:27:51.067Z,100.00
2022-09-26T21:30:21.660Z,100.00
2022-09-26T21:32:53.298Z,100.00
2022-09-26T21:35:22.831Z,100.00
2022-09-26T21:37:52.057Z,100.00
2022-09-26T21:40:26.143Z,100.00
2022-09-26T21:42:56.605Z,100.00
2022-09-26T21:45:27.534Z,100.00
2022-09-26T21:47:55.716Z,100.00
2022-09-26T21:50:23.305Z,100.00
2022-09-26T21:52:54.865Z,100.00
2022-09-26T21:55:29.717Z,100.00
2022-09-26T21:58:02.092Z,100.00
2022-09-26T22:00:28.749Z,100.00
2022-09-26T22:03:25.281Z,100.00
2022-09-26T22:05:53.913Z,100.00
2022-09-26T22:08:21.150Z,100.00
2022-09-26T22:10:47.683Z,100.00
2022-09-26T22:13:14.169Z,100.00
2022-09-26T22:15:40.809Z,100.00
2022-09-26T22:18:07.334Z,100.00
2022-09-26T22:20:34.131Z,100.00
2022-09-26T22:23:00.967Z,100.00
2022-09-26T22:25:27.650Z,100.00
2022-09-26T22:27:54.473Z,100.00
2022-09-26T22:30:51.191Z,100.00
2022-09-26T22:33:18.673Z,100.00
2022-09-26T22:35:49.448Z,100.00
2022-09-26T22:38:16.201Z,100.00
2022-09-26T22:40:42.889Z,100.00
2022-09-26T22:43:09.415Z,100.00
2022-09-26T22:45:36.245Z,100.00
2022-09-26T22:48:03.596Z,100.00
2022-09-26T22:50:30.113Z,100.00
2022-09-26T22:52:59.006Z,100.00
2022-09-26T22:55:25.554Z,100.00
2022-09-26T22:57:59.410Z,100.00
2022-09-26T23:00:25.989Z,100.00
2022-09-26T23:02:52.732Z,100.00
2022-09-26T23:05:19.321Z,100.00
2022-09-26T23:07:45.946Z,100.00
2022-09-26T23:10:14.618Z,100.00
2022-09-26T23:12:41.908Z,100.00
2022-09-26T23:15:09.377Z,100.00
2022-09-26T23:17:35.876Z,100.00
2022-09-26T23:20:02.454Z,100.00
2022-09-26T23:22:29.010Z,100.00
2022-09-26T23:24:57.858Z,100.00
2022-09-26T23:27:26.201Z,100.00
2022-09-26T23:29:53.738Z,100.00
2022-09-26T23:32:20.241Z,100.00
2022-09-26T23:34:46.784Z,100.00
2022-09-26T23:37:13.645Z,100.00
2022-09-26T23:40:08.517Z,100.00
2022-09-26T23:42:37.973Z,100.00
2022-09-26T23:45:07.291Z,100.00
2022-09-26T23:47:34.610Z,100.00
2022-09-26T23:50:03.422Z,100.00
2022-09-26T23:52:30.584Z,100.00
2022-09-26T23:55:00.225Z,100.00
2022-09-26T23:57:26.944Z,100.00
2022-09-26T23:59:53.473Z,100.00
